Terminal Aerodrome Forecast
Issued by NWS

Home | Current Version | Previous Version | Text Only | Print | Product List | Glossary Off
Versions: 1 2 3 4 5 6 7 8 9 10 11 12 13 14 15 16 17 18 19 20 21 22
000 FTUS43 KABR 081937 AAS TAFMBG TAF AMD KMBG 081937Z 0820/0918 09017G30KT 6SM SHRA BR SCT025 BKN050 FM082200 08013G25KT 6SM SHRA BR BKN012 OVC015 FM090000 07012KT 3SM -SHRA BR OVC008 FM091100 02005KT P6SM VCSH OVC009 FM091400 03007KT P6SM OVC010=

USA.gov is the U.S. government's official web portal to all federal, state and local government web resources and services.